Time;durP1;ratioP1;P1;durP2;ratioP2;P2;SDS_P1;SDS_P2;PMS_P1;PMS_P2;Temp;Humidity;BMP_temperature;BMP_pressure;BME280_temperature;BME280_humidity;BME280_pressure;Samples;Min_cycle;Max_cycle;Signal;HPM_P1;HPM_P2
2022/11/25 00:00:50;;;;;;;12.03;7.40;;;;;;;3.12;100.00;100786.91;4997680;28;20202;-74
2022/11/25 00:03:16;;;;;;;13.10;7.53;;;;;;;3.13;100.00;100797.22;4978049;28;20678;-74
2022/11/25 00:05:44;;;;;;;15.70;8.20;;;;;;;3.18;100.00;100790.41;4982841;28;20250;-73
2022/11/25 00:08:10;;;;;;;13.53;8.43;;;;;;;3.21;100.00;100790.41;4995984;28;20288;-74
2022/11/25 00:10:37;;;;;;;11.73;7.53;;;;;;;3.25;100.00;100782.69;4980675;28;20192;-74
2022/11/25 00:13:03;;;;;;;13.53;7.90;;;;;;;3.23;100.00;100783.53;5000006;28;20594;-73
2022/11/25 00:15:30;;;;;;;14.30;7.67;;;;;;;3.21;100.00;100779.22;4982143;28;20732;-74
2022/11/25 00:17:56;;;;;;;16.70;7.37;;;;;;;3.23;100.00;100778.38;4994904;28;20209;-72
2022/11/25 00:20:22;;;;;;;15.23;7.70;;;;;;;3.24;100.00;100789.56;4997487;28;20205;-74
2022/11/25 00:22:50;;;;;;;15.97;8.77;;;;;;;3.26;100.00;100787.00;4996747;28;20192;-74
2022/11/25 00:25:16;;;;;;;15.70;7.70;;;;;;;3.28;100.00;100786.16;4998327;28;20221;-74
2022/11/25 00:27:43;;;;;;;13.90;7.80;;;;;;;3.32;100.00;100793.03;4992202;28;20193;-74
2022/11/25 00:30:10;;;;;;;14.10;8.57;;;;;;;3.35;100.00;100790.47;4977367;28;20197;-74
2022/11/25 00:32:37;;;;;;;16.03;8.83;;;;;;;3.38;100.00;100790.50;4996869;28;20221;-74
2022/11/25 00:35:04;;;;;;;14.97;8.37;;;;;;;3.40;100.00;100791.38;4983521;28;20750;-74
2022/11/25 00:37:32;;;;;;;13.17;8.20;;;;;;;3.41;100.00;100790.53;4979107;28;20642;-74
2022/11/25 00:39:59;;;;;;;12.30;8.00;;;;;;;3.41;100.00;100782.81;4977158;28;20330;-74
2022/11/25 00:45:10;;;;;;;15.90;8.50;;;;;;;3.43;100.00;100798.28;4982609;28;20224;-75
2022/11/25 00:47:36;;;;;;;13.80;7.77;;;;;;;3.44;100.00;100791.41;4978936;28;20579;-72
2022/11/25 00:50:03;;;;;;;17.63;8.73;;;;;;;3.44;100.00;100799.13;4984241;28;20213;-74
2022/11/25 00:52:35;;;;;;;14.17;8.17;;;;;;;3.44;100.00;100802.56;4992422;28;20237;-73
2022/11/25 00:55:04;;;;;;;12.57;7.57;;;;;;;3.46;100.00;100807.75;4985676;28;20229;-74
2022/11/25 00:57:30;;;;;;;13.57;8.23;;;;;;;3.46;100.00;100800.84;4995663;28;20213;-74
2022/11/25 00:59:57;;;;;;;15.13;7.47;;;;;;;3.47;100.00;100812.91;4992663;28;20207;-74
2022/11/25 01:02:23;;;;;;;11.20;6.93;;;;;;;3.47;100.00;100812.91;4974699;28;20615;-74
2022/11/25 01:04:50;;;;;;;12.57;7.30;;;;;;;3.47;100.00;100804.31;4981859;28;20232;-74
2022/11/25 01:07:17;;;;;;;15.67;8.20;;;;;;;3.45;100.00;100808.56;4983252;28;20213;-74
2022/11/25 01:09:44;;;;;;;14.23;7.80;;;;;;;3.45;100.00;100808.56;4977634;28;20306;-73
2022/11/25 01:12:12;;;;;;;15.70;8.03;;;;;;;3.41;100.00;100802.53;4981717;28;20688;-74
2022/11/25 01:14:38;;;;;;;11.43;7.57;;;;;;;3.39;100.00;100807.72;4981810;28;20608;-74
2022/11/25 01:17:05;;;;;;;13.30;8.03;;;;;;;3.40;100.00;100808.56;5064135;28;20204;-73
2022/11/25 01:19:32;;;;;;;12.10;8.10;;;;;;;3.40;100.00;100811.16;4995232;28;20212;-73
2022/11/25 01:21:59;;;;;;;14.27;7.37;;;;;;;3.38;100.00;100807.69;4996377;28;20196;-74
2022/11/25 01:24:26;;;;;;;13.27;8.17;;;;;;;3.36;100.00;100801.66;4981780;28;20218;-74
2022/11/25 01:26:54;;;;;;;10.93;6.83;;;;;;;3.34;100.00;100809.41;4997171;28;20217;-74
2022/11/25 01:29:23;;;;;;;12.07;7.40;;;;;;;3.32;100.00;100811.06;4976514;28;20765;-74
2022/11/25 01:31:50;;;;;;;17.47;7.93;;;;;;;3.31;100.00;100808.53;4993217;28;20660;-74
2022/11/25 01:34:21;;;;;;;16.27;8.70;;;;;;;3.30;100.00;100810.22;4998340;28;20611;-74
2022/11/25 01:36:48;;;;;;;13.07;7.37;;;;;;;3.31;100.00;100803.38;4996511;28;20204;-73
2022/11/25 01:39:17;;;;;;;12.43;7.30;;;;;;;3.31;100.00;100795.63;4979696;28;20207;-74
2022/11/25 01:41:43;;;;;;;12.07;7.27;;;;;;;3.29;100.00;100805.03;4995422;28;20205;-74
2022/11/25 01:44:13;;;;;;;13.53;7.20;;;;;;;3.28;100.00;100811.91;5000978;28;20235;-74
2022/11/25 01:46:46;;;;;;;12.50;7.33;;;;;;;3.23;100.00;100806.72;4975758;28;20296;-74
2022/11/25 01:49:17;;;;;;;11.40;7.30;;;;;;;3.22;100.00;100810.16;4994637;28;20194;-73
2022/11/25 01:51:48;;;;;;;12.07;7.10;;;;;;;3.20;100.00;100803.25;4995032;28;20289;-74
2022/11/25 01:54:20;;;;;;;11.43;7.20;;;;;;;3.15;100.00;100798.09;4995982;28;20528;-74
2022/11/25 01:56:50;;;;;;;17.90;7.33;;;;;;;3.12;100.00;100794.63;4979473;28;20249;-73
2022/11/25 01:59:17;;;;;;;10.80;6.53;;;;;;;3.07;100.00;100802.31;4978980;28;20541;-74
2022/11/25 02:01:44;;;;;;;13.80;7.13;;;;;;;3.03;100.00;100793.72;4999466;28;20248;-74
2022/11/25 02:04:14;;;;;;;10.40;6.33;;;;;;;3.00;100.00;100803.97;5000446;28;20675;-74
2022/11/25 02:06:50;;;;;;;16.10;6.80;;;;;;;2.99;100.00;100802.28;4997338;28;20190;-73
2022/11/25 02:09:18;;;;;;;11.17;7.47;;;;;;;2.93;100.00;100809.09;5001213;28;20200;-74
2022/11/25 02:11:45;;;;;;;12.47;6.83;;;;;;;2.86;100.00;100807.31;4984456;28;20196;-73
2022/11/25 02:14:13;;;;;;;11.50;6.97;;;;;;;2.78;100.00;100807.22;5003211;28;20229;-73
2022/11/25 02:16:40;;;;;;;10.87;6.83;;;;;;;2.74;100.00;100805.47;4995283;28;20250;-73
2022/11/25 02:19:19;;;;;;;46.20;7.70;;;;;;;2.69;100.00;100807.16;4980229;28;20185;-73
2022/11/25 02:21:50;;;;;;;12.57;6.17;;;;;;;2.60;100.00;100800.22;4982697;28;20199;-74
2022/11/25 02:24:25;;;;;;;9.10;5.10;;;;;;;2.50;100.00;100799.28;4982773;28;20205;-73
2022/11/25 02:26:52;;;;;;;8.83;5.97;;;;;;;2.40;100.00;100805.16;5001386;28;20208;-74
2022/11/25 02:29:22;;;;;;;7.87;5.20;;;;;;;2.30;100.00;100798.19;4982262;28;20193;-74
2022/11/25 02:31:48;;;;;;;7.97;5.00;;;;;;;2.17;100.00;100802.34;4979154;28;20271;-73
2022/11/25 02:34:15;;;;;;;9.30;5.73;;;;;;;2.09;100.00;100794.53;4984930;28;20220;-73
2022/11/25 02:36:41;;;;;;;12.77;6.27;;;;;;;2.01;100.00;100791.88;4984857;28;20299;-73
2022/11/25 02:39:08;;;;;;;8.40;4.90;;;;;;;1.90;100.00;100796.06;4982994;28;20200;-74
2022/11/25 02:41:39;;;;;;;7.57;5.20;;;;;;;1.82;100.00;100795.09;4981840;28;20200;-74
2022/11/25 02:44:07;;;;;;;9.23;5.37;;;;;;;1.73;100.00;100790.69;4982635;28;20197;-74
2022/11/25 02:46:34;;;;;;;10.17;5.37;;;;;;;1.66;100.00;100786.31;4979019;28;20213;-72
2022/11/25 02:49:02;;;;;;;9.83;5.60;;;;;;;1.59;100.00;100795.66;5000194;28;20189;-73
2022/11/25 02:51:31;;;;;;;10.73;5.47;;;;;;;1.57;100.00;100794.78;5001249;28;20204;-73
2022/11/25 02:53:59;;;;;;;10.80;4.53;;;;;;;1.52;100.00;100789.56;4982457;28;20208;-72
2022/11/25 02:56:30;;;;;;;7.67;5.07;;;;;;;1.46;100.00;100789.50;4986630;28;20239;-74
2022/11/25 02:58:58;;;;;;;11.87;6.43;;;;;;;1.41;100.00;100788.56;4996404;28;20200;-74
2022/11/25 03:01:29;;;;;;;11.03;6.07;;;;;;;1.38;100.00;100792.78;4978074;28;20262;-74
2022/11/25 03:03:56;;;;;;;10.03;5.77;;;;;;;1.33;100.00;100793.56;4995881;28;20204;-74
2022/11/25 03:06:23;;;;;;;7.40;5.00;;;;;;;1.28;100.00;100791.78;4984506;28;20281;-73
2022/11/25 03:08:50;;;;;;;7.20;5.10;;;;;;;1.22;100.00;100797.69;4999319;28;20308;-74
2022/11/25 03:11:17;;;;;;;10.70;5.40;;;;;;;1.17;100.00;100801.91;4977013;28;20197;-73
2022/11/25 03:13:43;;;;;;;9.00;5.90;;;;;;;1.12;100.00;100799.25;4981446;28;20252;-74
2022/11/25 03:16:10;;;;;;;12.47;5.77;;;;;;;1.05;100.00;100805.13;4981799;28;20262;-73
2022/11/25 03:18:37;;;;;;;14.57;5.27;;;;;;;1.01;100.00;100807.66;5000366;28;20514;-74
2022/11/25 03:21:04;;;;;;;12.07;5.13;;;;;;;0.92;100.00;100803.22;4979638;28;20212;-74
2022/11/25 03:23:30;;;;;;;18.03;5.97;;;;;;;0.83;100.00;100801.38;4984639;28;20200;-75
2022/11/25 03:25:57;;;;;;;15.50;5.93;;;;;;;0.79;100.00;100802.16;4981536;28;20220;-74
2022/11/25 03:28:23;;;;;;;11.23;5.07;;;;;;;0.71;100.00;100804.59;4982081;28;20751;-74
2022/11/25 03:30:50;;;;;;;10.30;6.03;;;;;;;0.64;100.00;100807.91;4999486;28;20292;-72
2022/11/25 03:33:16;;;;;;;9.27;5.43;;;;;;;0.60;100.00;100805.25;4999502;28;20197;-74
2022/11/25 03:35:47;;;;;;;12.83;6.10;;;;;;;0.52;100.00;100805.97;4979677;28;20906;-73
2022/11/25 03:38:14;;;;;;;7.90;5.63;;;;;;;0.44;100.00;100817.81;4980898;28;20657;-74
2022/11/25 03:40:40;;;;;;;8.90;5.90;;;;;;;0.38;100.00;100817.69;4999152;28;20216;-74
2022/11/25 03:43:06;;;;;;;9.57;5.70;;;;;;;0.37;100.00;100821.09;4996736;28;20245;-74
2022/11/25 03:45:33;;;;;;;10.80;5.87;;;;;;;0.37;100.00;100828.81;4981038;28;20261;-76
2022/11/25 03:48:03;;;;;;;9.20;5.63;;;;;;;0.37;100.00;100827.09;4996794;28;20204;-74
2022/11/25 03:50:30;;;;;;;8.20;5.43;;;;;;;0.41;100.00;100825.44;4980335;28;20197;-75
2022/11/25 03:52:57;;;;;;;7.43;5.67;;;;;;;0.45;100.00;100826.38;4983732;28;20355;-75
2022/11/25 03:55:24;;;;;;;10.53;5.47;;;;;;;0.48;100.00;100827.28;4998261;28;20212;-75
2022/11/25 03:57:51;;;;;;;6.77;5.17;;;;;;;0.50;100.00;100825.63;4996687;28;20546;-75
2022/11/25 04:00:18;;;;;;;7.73;5.20;;;;;;;0.56;100.00;100829.97;4982429;28;20201;-76
2022/11/25 04:02:49;;;;;;;11.07;5.40;;;;;;;0.60;100.00;100826.66;4996507;28;20217;-74
2022/11/25 04:05:17;;;;;;;12.23;5.40;;;;;;;0.64;100.00;100820.72;4981343;28;20224;-75
2022/11/25 04:07:43;;;;;;;7.73;5.53;;;;;;;0.69;100.00;100825.97;4978916;28;20297;-75
2022/11/25 04:10:12;;;;;;;7.20;5.27;;;;;;;0.72;100.00;100823.41;4981713;28;20201;-75
2022/11/25 04:12:46;;;;;;;7.23;5.43;;;;;;;0.77;100.00;100824.38;4980769;28;20197;-75
2022/11/25 04:15:17;;;;;;;10.33;6.33;;;;;;;0.82;100.00;100824.44;4984269;28;20228;-75
2022/11/25 04:17:47;;;;;;;8.47;5.30;;;;;;;0.84;100.00;100830.47;4981327;28;20251;-75
2022/11/25 04:20:14;;;;;;;8.43;5.40;;;;;;;0.88;100.00;100825.44;4981382;28;20567;-75
2022/11/25 04:22:44;;;;;;;6.27;5.03;;;;;;;0.90;100.00;100831.44;4981641;28;20204;-74
2022/11/25 04:25:12;;;;;;;8.87;5.33;;;;;;;0.95;100.00;100831.53;4981944;28;20273;-75
2022/11/25 04:27:39;;;;;;;15.87;5.70;;;;;;;1.00;100.00;100834.16;4982830;28;20196;-76
2022/11/25 04:30:07;;;;;;;10.33;5.80;;;;;;;1.03;100.00;100841.91;4977425;28;20258;-75
2022/11/25 04:32:38;;;;;;;8.93;5.53;;;;;;;1.06;100.00;100842.84;4995172;28;20201;-76
2022/11/25 04:35:07;;;;;;;8.20;6.03;;;;;;;1.09;100.00;100842.00;4976662;28;20230;-75
2022/11/25 04:37:34;;;;;;;10.27;5.93;;;;;;;1.15;100.00;100846.41;4979067;28;20189;-75
2022/11/25 04:40:00;;;;;;;11.90;6.33;;;;;;;1.18;100.00;100847.31;4996083;28;20201;-75
2022/11/25 04:42:35;;;;;;;10.03;5.90;;;;;;;1.22;100.00;100841.38;4980712;28;20208;-75
2022/11/25 04:45:07;;;;;;;9.53;6.60;;;;;;;1.27;100.00;100844.03;4984266;28;20288;-75
2022/11/25 04:47:34;;;;;;;12.07;6.70;;;;;;;1.33;100.00;100842.38;4975932;28;20729;-75
2022/11/25 04:50:02;;;;;;;13.37;6.40;;;;;;;1.45;100.00;100843.44;4975806;28;20201;-76
2022/11/25 04:52:30;;;;;;;13.20;6.63;;;;;;;1.51;100.00;100836.69;4979661;28;20264;-74
2022/11/25 04:54:57;;;;;;;19.93;6.93;;;;;;;1.60;100.00;100848.78;4980966;28;20228;-74
2022/11/25 04:57:24;;;;;;;11.37;6.87;;;;;;;1.65;100.00;100847.16;4979807;28;20201;-76
2022/11/25 04:59:51;;;;;;;12.63;7.30;;;;;;;1.70;100.00;100849.78;4976856;28;20227;-74
2022/11/25 05:02:20;;;;;;;15.10;7.97;;;;;;;1.78;100.00;100849.91;4975548;28;20204;-75
2022/11/25 05:04:56;;;;;;;10.73;7.20;;;;;;;1.82;100.00;100852.50;4995815;28;20434;-75
2022/11/25 05:07:25;;;;;;;17.00;6.63;;;;;;;1.83;100.00;100854.25;4980661;28;20292;-74
2022/11/25 05:09:55;;;;;;;15.93;7.63;;;;;;;1.86;100.00;100859.41;4978071;28;20303;-75
2022/11/25 05:12:33;;;;;;;14.47;7.10;;;;;;;1.92;100.00;100853.50;4981196;28;20193;-74
2022/11/25 05:15:05;;;;;;;16.10;7.63;;;;;;;1.97;100.00;100850.97;4980265;28;20766;-75
2022/11/25 05:17:33;;;;;;;18.17;6.93;;;;;;;2.01;100.00;100855.34;4993520;28;20197;-75
2022/11/25 05:20:00;;;;;;;11.20;7.73;;;;;;;2.03;100.00;100864.78;4977191;28;20278;-74
2022/11/25 05:22:32;;;;;;;15.17;8.20;;;;;;;2.02;100.00;100859.63;4977364;28;20212;-76
2022/11/25 05:24:59;;;;;;;12.20;7.43;;;;;;;2.06;100.00;100866.53;4977880;28;20565;-73
2022/11/25 05:27:26;;;;;;;13.50;7.30;;;;;;;2.09;100.00;100858.84;5004821;28;20232;-75
2022/11/25 05:29:54;;;;;;;12.40;7.20;;;;;;;2.11;100.00;100864.91;4993474;28;20649;-75
2022/11/25 05:32:22;;;;;;;14.57;7.73;;;;;;;2.10;100.00;100862.31;4995296;28;20211;-73
2022/11/25 05:34:49;;;;;;;8.40;7.10;;;;;;;2.14;100.00;100861.47;4975133;28;20316;-74
2022/11/25 05:37:15;;;;;;;13.53;7.67;;;;;;;2.16;100.00;100870.06;4982450;28;20217;-76
2022/11/25 05:39:49;;;;;;;17.43;7.73;;;;;;;2.17;100.00;100871.81;4976661;28;20201;-75
2022/11/25 05:42:35;;;;;;;12.17;7.43;;;;;;;2.18;100.00;100870.94;4975126;28;21870;-74
2022/11/25 05:45:05;;;;;;;16.30;7.67;;;;;;;2.21;100.00;100868.44;4983410;28;22120;-75
2022/11/25 05:47:34;;;;;;;13.50;7.90;;;;;;;2.22;100.00;100867.59;4980958;28;20305;-75
2022/11/25 05:50:00;;;;;;;15.70;7.33;;;;;;;2.24;100.00;100871.03;4993875;28;20220;-75
2022/11/25 05:52:27;;;;;;;20.40;9.20;;;;;;;2.25;100.00;100868.50;4981179;28;20220;-76
2022/11/25 05:54:57;;;;;;;11.60;7.37;;;;;;;2.25;100.00;100875.31;4992419;28;20317;-74
2022/11/25 05:57:23;;;;;;;15.13;7.63;;;;;;;2.25;100.00;100878.78;5000446;28;20217;-75
2022/11/25 05:59:54;;;;;;;16.47;7.47;;;;;;;2.27;100.00;100877.09;4979884;28;20261;-75
2022/11/25 06:02:28;;;;;;;16.40;6.53;;;;;;;2.28;100.00;100873.66;4997920;28;20227;-76
2022/11/25 06:04:57;;;;;;;12.17;7.13;;;;;;;2.29;100.00;100866.81;4996095;28;20719;-74
2022/11/25 06:07:23;;;;;;;12.13;7.00;;;;;;;2.33;100.00;100867.72;4979234;28;20507;-75
2022/11/25 06:09:50;;;;;;;17.77;7.37;;;;;;;2.35;100.00;100868.59;4979654;28;20300;-74
2022/11/25 06:12:17;;;;;;;11.80;6.87;;;;;;;2.37;100.00;100869.47;4976050;28;20199;-75
2022/11/25 06:14:48;;;;;;;11.50;7.30;;;;;;;2.39;100.00;100873.81;5006026;28;20588;-75
2022/11/25 06:17:15;;;;;;;16.23;8.33;;;;;;;2.39;100.00;100876.38;4982228;28;20208;-74
2022/11/25 06:19:50;;;;;;;13.57;8.20;;;;;;;2.42;100.00;100870.38;4977913;28;20201;-75
2022/11/25 06:22:18;;;;;;;15.73;8.97;;;;;;;2.43;100.00;100872.13;4984695;28;20681;-75
2022/11/25 06:24:44;;;;;;;14.00;9.20;;;;;;;2.43;100.00;100870.41;4980856;28;20214;-74
2022/11/25 06:27:10;;;;;;;14.63;9.73;;;;;;;2.45;100.00;100875.56;4984145;28;20229;-75
2022/11/25 06:29:38;;;;;;;17.00;8.93;;;;;;;2.44;100.00;100878.97;4982507;28;20209;-75
2022/11/25 06:32:04;;;;;;;11.77;7.80;;;;;;;2.45;100.00;100878.16;4979254;28;20201;-74
2022/11/25 06:34:42;;;;;;;11.20;7.30;;;;;;;2.46;100.00;100878.16;4977523;28;20226;-75
2022/11/25 06:37:18;;;;;;;18.23;7.27;;;;;;;2.49;100.00;100881.63;4977769;28;21423;-74
2022/11/25 06:39:44;;;;;;;17.77;11.67;;;;;;;2.49;100.00;100877.31;4980641;28;20572;-75
2022/11/25 06:42:11;;;;;;;11.90;8.47;;;;;;;2.50;100.00;100884.22;4999964;28;20224;-75
2022/11/25 06:44:37;;;;;;;16.23;8.70;;;;;;;2.49;100.00;100886.78;4980593;28;20713;-74
2022/11/25 06:47:04;;;;;;;14.97;8.17;;;;;;;2.49;100.00;100885.03;4992673;28;20657;-75
2022/11/25 06:49:30;;;;;;;12.60;8.37;;;;;;;2.49;100.00;100885.03;4996185;28;20695;-74
2022/11/25 06:51:56;;;;;;;13.50;8.57;;;;;;;2.51;100.00;100879.91;4996431;28;20212;-74
2022/11/25 06:54:24;;;;;;;13.13;7.50;;;;;;;2.52;100.00;100886.81;5003080;28;20197;-75
2022/11/25 06:56:52;;;;;;;12.87;8.03;;;;;;;2.54;100.00;100885.13;4997091;28;20507;-75
2022/11/25 06:59:19;;;;;;;20.80;7.33;;;;;;;2.54;100.00;100893.69;4994906;28;20208;-75
2022/11/25 07:01:46;;;;;;;12.87;7.20;;;;;;;2.56;100.00;100888.56;4991178;28;20292;-74
2022/11/25 07:04:13;;;;;;;12.83;7.17;;;;;;;2.57;100.00;100885.13;4997610;28;20271;-75
2022/11/25 07:06:39;;;;;;;11.77;5.93;;;;;;;2.53;100.00;100885.94;4992405;28;20236;-75
2022/11/25 07:09:06;;;;;;;11.60;6.90;;;;;;;2.55;100.00;100885.13;4981089;28;20543;-74
2022/11/25 07:11:35;;;;;;;9.00;6.67;;;;;;;2.50;100.00;100891.06;4984246;28;20754;-75
2022/11/25 07:14:03;;;;;;;11.97;6.57;;;;;;;2.37;100.00;100898.63;4999682;28;20300;-75
2022/11/25 07:16:30;;;;;;;10.60;6.87;;;;;;;2.27;100.00;100904.53;4978186;28;20308;-74
2022/11/25 07:18:59;;;;;;;12.30;6.97;;;;;;;2.20;100.00;100901.03;5002270;28;20204;-75
2022/11/25 07:21:25;;;;;;;9.20;5.73;;;;;;;2.13;100.00;100891.50;5000017;28;20207;-75
2022/11/25 07:23:52;;;;;;;16.87;6.50;;;;;;;2.07;100.00;100902.53;4981902;28;20604;-75
2022/11/25 07:26:22;;;;;;;14.43;5.77;;;;;;;2.03;100.00;100903.38;4999250;28;20218;-75
2022/11/25 07:28:50;;;;;;;9.67;6.20;;;;;;;2.01;100.00;100911.91;4982259;28;20212;-75
2022/11/25 07:31:18;;;;;;;13.53;6.77;;;;;;;2.02;100.00;100922.22;4980658;28;20226;-75
2022/11/25 07:33:45;;;;;;;11.07;7.67;;;;;;;2.07;100.00;100917.13;4995936;28;20201;-74
2022/11/25 07:36:13;;;;;;;15.23;7.00;;;;;;;2.12;100.00;100924.91;4999718;28;20323;-74
2022/11/25 07:38:41;;;;;;;15.00;7.90;;;;;;;2.15;100.00;100936.09;4979528;28;20197;-75
2022/11/25 07:41:10;;;;;;;11.87;7.03;;;;;;;2.19;100.00;100935.28;4980066;28;20193;-75
2022/11/25 07:43:37;;;;;;;17.73;9.10;;;;;;;2.22;100.00;100931.91;4995517;28;20205;-75
2022/11/25 07:46:16;;;;;;;15.10;9.50;;;;;;;2.25;100.00;100932.81;4999733;28;20266;-74
2022/11/25 07:48:42;;;;;;;17.57;9.40;;;;;;;2.28;100.00;100937.13;4979292;28;20211;-75
2022/11/25 07:51:16;;;;;;;14.97;9.03;;;;;;;2.30;100.00;100937.16;4996231;28;20192;-75
2022/11/25 07:53:43;;;;;;;14.93;9.27;;;;;;;2.29;100.00;100933.72;4992699;28;20208;-75
2022/11/25 07:56:09;;;;;;;20.53;10.87;;;;;;;2.30;100.00;100929.44;4983156;28;20255;-75
2022/11/25 07:58:35;;;;;;;13.67;9.43;;;;;;;2.27;100.00;100941.41;4995631;28;20209;-75
2022/11/25 08:01:03;;;;;;;14.73;8.90;;;;;;;2.28;100.00;100944.84;4983236;28;20313;-76
2022/11/25 08:03:32;;;;;;;18.83;10.57;;;;;;;2.30;100.00;100950.88;4998067;28;20201;-75
2022/11/25 08:06:00;;;;;;;17.70;9.80;;;;;;;2.33;100.00;100944.91;4996482;28;20217;-75
2022/11/25 08:08:26;;;;;;;25.40;12.43;;;;;;;2.36;100.00;100944.97;4995270;28;20612;-75
2022/11/25 08:10:53;;;;;;;36.77;19.50;;;;;;;2.40;100.00;100945.00;5010165;28;20584;-75
2022/11/25 08:13:19;;;;;;;29.83;12.30;;;;;;;2.40;100.00;100936.44;4997045;28;20200;-75
2022/11/25 08:15:46;;;;;;;23.87;11.87;;;;;;;2.39;100.00;100938.16;4997722;28;20719;-75
2022/11/25 08:18:12;;;;;;;29.80;13.23;;;;;;;2.39;100.00;100945.88;4995083;28;20383;-75
2022/11/25 08:20:40;;;;;;;21.90;11.93;;;;;;;2.40;100.00;100946.72;4982199;28;20212;-75
2022/11/25 08:23:06;;;;;;;15.53;10.20;;;;;;;2.42;100.00;100945.03;4978473;28;20606;-75
2022/11/25 08:25:32;;;;;;;22.93;10.60;;;;;;;2.45;100.00;100950.22;4998093;28;20228;-75
2022/11/25 08:27:59;;;;;;;16.67;10.13;;;;;;;2.46;100.00;100947.66;4993435;28;20201;-75
2022/11/25 08:30:26;;;;;;;18.50;10.50;;;;;;;2.49;100.00;100948.53;4976850;28;20205;-75
2022/11/25 08:32:53;;;;;;;23.07;11.40;;;;;;;2.51;100.00;100947.69;4983527;28;20553;-75
2022/11/25 08:35:20;;;;;;;32.97;14.50;;;;;;;2.56;100.00;100947.78;4996624;28;20220;-75
2022/11/25 08:37:47;;;;;;;19.00;10.57;;;;;;;2.59;100.00;100947.81;4983744;28;20205;-75
2022/11/25 08:40:14;;;;;;;22.43;12.40;;;;;;;2.63;100.00;100949.56;5000314;28;20209;-75
2022/11/25 08:42:40;;;;;;;17.27;10.77;;;;;;;2.64;100.00;100948.72;4982338;28;20573;-75
2022/11/25 08:45:08;;;;;;;21.40;11.00;;;;;;;2.65;100.00;100953.03;4983419;28;20277;-75
2022/11/25 08:47:35;;;;;;;15.47;9.20;;;;;;;2.65;100.00;100946.16;4974510;28;20702;-74
2022/11/25 08:50:02;;;;;;;17.83;9.30;;;;;;;2.67;100.00;100942.75;5000681;28;20220;-75
2022/11/25 08:52:29;;;;;;;22.07;9.87;;;;;;;2.68;100.00;100945.34;4990714;28;20205;-75
2022/11/25 08:54:56;;;;;;;17.80;9.83;;;;;;;2.73;100.00;100941.09;4997795;28;20225;-75
2022/11/25 08:57:23;;;;;;;21.90;11.47;;;;;;;2.78;100.00;100946.28;4978442;28;20681;-75
2022/11/25 08:59:49;;;;;;;25.13;12.13;;;;;;;2.86;100.00;100954.13;4978896;28;20212;-75
2022/11/25 09:02:16;;;;;;;24.10;12.77;;;;;;;2.97;100.00;100955.97;4983229;28;20207;-74
2022/11/25 09:04:43;;;;;;;17.27;9.17;;;;;;;3.09;100.00;100955.19;5001029;28;20231;-75
2022/11/25 09:07:10;;;;;;;16.53;9.10;;;;;;;3.17;100.00;100957.88;4992860;28;20193;-75
2022/11/25 09:09:37;;;;;;;13.27;7.97;;;;;;;3.21;100.00;100957.03;4977173;28;20665;-75
2022/11/25 09:12:05;;;;;;;20.13;9.07;;;;;;;3.28;100.00;100953.66;4986416;28;20209;-75
2022/11/25 09:14:31;;;;;;;17.53;7.90;;;;;;;3.36;100.00;100964.03;4983383;28;20223;-75
2022/11/25 09:16:58;;;;;;;14.30;8.00;;;;;;;3.44;100.00;100966.69;4980474;28;20224;-75
2022/11/25 09:19:24;;;;;;;11.03;7.63;;;;;;;3.50;100.00;100966.72;4999492;28;20583;-74
2022/11/25 09:21:50;;;;;;;13.87;7.80;;;;;;;3.65;100.00;100964.28;4999127;28;20203;-74
2022/11/25 09:24:17;;;;;;;17.30;7.90;;;;;;;3.68;100.00;100968.63;4983000;28;20214;-75
2022/11/25 09:26:44;;;;;;;11.00;7.10;;;;;;;3.70;100.00;100965.19;5002146;28;20197;-76
2022/11/25 09:29:13;;;;;;;17.60;7.73;;;;;;;3.74;100.00;100972.09;4996871;28;20232;-74
2022/11/25 09:31:40;;;;;;;12.83;7.27;;;;;;;3.85;100.00;100956.69;4983043;28;20201;-75
2022/11/25 09:34:08;;;;;;;16.57;7.30;;;;;;;3.90;100.00;100964.47;5001077;28;20215;-74
2022/11/25 09:36:35;;;;;;;11.97;6.53;;;;;;;3.94;100.00;100959.34;5000936;28;20220;-76
2022/11/25 09:39:03;;;;;;;15.70;7.43;;;;;;;3.99;100.00;100959.34;5000971;28;20336;-76
2022/11/25 09:47:44;;;;;;;12.17;5.93;;;;;;;4.17;100.00;100961.22;4985205;28;20228;-75
2022/11/25 09:50:20;;;;;;;16.20;6.97;;;;;;;4.21;100.00;100959.50;5000902;28;20196;-76
2022/11/25 09:52:57;;;;;;;16.53;6.57;;;;;;;4.27;100.00;100959.53;4982312;28;20196;-74
2022/11/25 09:55:25;;;;;;;13.67;6.87;;;;;;;4.29;100.00;100963.84;4984789;28;20688;-75
2022/11/25 09:58:01;;;;;;;19.67;6.40;;;;;;;4.33;100.00;100957.84;4996921;28;20275;-75
2022/11/25 10:00:37;;;;;;;17.57;6.50;;;;;;;4.37;100.00;100966.47;4998115;28;20519;-74
2022/11/25 10:03:11;;;;;;;14.73;6.53;;;;;;;4.43;100.00;100960.44;5001207;28;20668;-75
2022/11/25 10:05:42;;;;;;;15.37;6.47;;;;;;;4.45;100.00;100958.72;4999547;28;20218;-75
2022/11/25 10:08:13;;;;;;;12.20;5.97;;;;;;;4.45;100.00;100962.22;4983770;28;20300;-76
2022/11/25 10:10:44;;;;;;;18.50;6.50;;;;;;;4.48;100.00;100961.34;5001993;28;20204;-75
2022/11/25 10:13:17;;;;;;;16.70;7.93;;;;;;;4.55;100.00;100963.09;5005421;28;20204;-75
2022/11/25 10:15:48;;;;;;;9.63;5.97;;;;;;;4.59;100.00;100957.09;4977917;28;20219;-76
2022/11/25 10:18:21;;;;;;;21.37;6.50;;;;;;;4.63;100.00;100961.41;5000426;28;20189;-75
2022/11/25 10:20:50;;;;;;;15.30;6.40;;;;;;;4.68;100.00;100956.28;4982389;28;20676;-75
2022/11/25 10:23:23;;;;;;;14.27;6.97;;;;;;;4.67;100.00;100957.97;4997074;28;20243;-75
2022/11/25 10:25:52;;;;;;;14.47;6.90;;;;;;;4.73;100.00;100963.16;4996085;28;20285;-76
2022/11/25 10:28:21;;;;;;;13.87;6.03;;;;;;;4.77;100.00;100953.72;4993268;28;20219;-75
2022/11/25 10:30:58;;;;;;;16.20;6.50;;;;;;;4.83;100.00;100958.03;4982161;28;20215;-76
2022/11/25 10:33:28;;;;;;;18.87;6.67;;;;;;;4.89;100.00;100955.44;4999933;28;20215;-75
2022/11/25 10:35:58;;;;;;;19.13;6.37;;;;;;;4.94;100.00;100945.97;4992189;23;20229;-71
2022/11/25 10:38:30;;;;;;;12.07;6.03;;;;;;;4.98;100.00;100946.84;4968888;28;20754;-71
2022/11/25 10:40:57;;;;;;;10.70;5.53;;;;;;;4.99;100.00;100946.84;4964164;28;20653;-72
2022/11/25 10:43:23;;;;;;;20.73;6.67;;;;;;;5.03;100.00;100934.81;4963867;28;20440;-72
2022/11/25 10:45:58;;;;;;;19.43;6.33;;;;;;;5.04;100.00;100931.38;4973651;28;20213;-72
2022/11/25 10:48:46;;;;;;;16.80;6.27;;;;;;;5.09;100.00;100938.25;4965405;28;20216;-72
2022/11/25 10:51:31;;;;;;;12.77;5.50;;;;;;;5.15;100.00;100928.78;4963357;28;20757;-72
2022/11/25 10:54:13;;;;;;;23.83;7.23;;;;;;;5.20;100.00;100927.06;4967722;28;20198;-70
2022/11/25 10:56:46;;;;;;;19.30;6.50;;;;;;;5.27;100.00;100934.81;4968773;28;20225;-70
2022/11/25 10:59:14;;;;;;;16.43;6.20;;;;;;;5.34;100.00;100937.44;4965588;28;20304;-70
2022/11/25 11:01:42;;;;;;;13.23;5.03;;;;;;;5.35;100.00;100932.25;4966461;28;20710;-72
2022/11/25 11:04:13;;;;;;;16.13;5.67;;;;;;;5.32;100.00;100930.53;4972639;28;20213;-72
2022/11/25 11:06:42;;;;;;;17.33;5.20;;;;;;;5.36;100.00;100938.28;4965700;28;20201;-71
2022/11/25 11:09:31;;;;;;;18.27;4.97;;;;;;;5.43;100.00;100940.88;4967114;28;20227;-70
2022/11/25 11:11:58;;;;;;;12.37;4.87;;;;;;;5.47;100.00;100939.13;4968109;28;20240;-71
2022/11/25 11:14:28;;;;;;;14.43;4.90;;;;;;;5.57;100.00;100943.44;4964044;28;20351;-71
2022/11/25 11:16:57;;;;;;;11.90;4.73;;;;;;;5.62;100.00;100939.13;4963498;28;20237;-70
2022/11/25 11:19:26;;;;;;;24.00;5.27;;;;;;;5.67;100.00;100936.56;4957881;28;20226;-71
2022/11/25 11:21:55;;;;;;;13.90;4.93;;;;;;;5.75;100.00;100934.84;4961695;28;20702;-71
2022/11/25 11:24:30;;;;;;;12.03;4.33;;;;;;;5.80;100.00;100935.66;4965686;28;20220;-71
2022/11/25 11:27:06;;;;;;;13.20;5.17;;;;;;;5.86;100.00;100940.00;4966087;28;20201;-71
2022/11/25 11:29:34;;;;;;;16.07;5.37;;;;;;;5.94;100.00;100938.22;4963266;28;20652;-70
2022/11/25 11:32:04;;;;;;;13.03;5.40;;;;;;;5.97;100.00;100937.41;4962967;28;20287;-71